sensor_id;sensor_type;location;lat;lon;timestamp;temperature;humidity
10083;DHT22;5080;48.528;8.078;2023-07-31T00:01:18;16.20;99.90
10083;DHT22;5080;48.528;8.078;2023-07-31T00:03:45;16.10;99.90
10083;DHT22;5080;48.528;8.078;2023-07-31T00:06:12;16.00;99.90
10083;DHT22;5080;48.528;8.078;2023-07-31T00:08:39;16.10;99.90
10083;DHT22;5080;48.528;8.078;2023-07-31T00:11:07;16.00;99.90
10083;DHT22;5080;48.528;8.078;2023-07-31T00:13:34;15.90;99.90
10083;DHT22;5080;48.528;8.078;2023-07-31T00:16:01;15.80;99.90
10083;DHT22;5080;48.528;8.078;2023-07-31T00:18:28;15.80;99.90
10083;DHT22;5080;48.528;8.078;2023-07-31T00:20:55;15.70;99.90
10083;DHT22;5080;48.528;8.078;2023-07-31T00:23:22;15.70;99.90
10083;DHT22;5080;48.528;8.078;2023-07-31T00:25:49;15.60;99.90
10083;DHT22;5080;48.528;8.078;2023-07-31T00:28:17;15.70;99.90
10083;DHT22;5080;48.528;8.078;2023-07-31T00:30:43;15.70;99.90
10083;DHT22;5080;48.528;8.078;2023-07-31T00:33:10;15.70;99.90
10083;DHT22;5080;48.528;8.078;2023-07-31T00:35:37;15.70;99.90
10083;DHT22;5080;48.528;8.078;2023-07-31T00:38:04;15.70;99.90
10083;DHT22;5080;48.528;8.078;2023-07-31T00:40:34;15.70;99.90
10083;DHT22;5080;48.528;8.078;2023-07-31T00:43:02;15.70;99.90
10083;DHT22;5080;48.528;8.078;2023-07-31T00:45:30;15.60;99.90
10083;DHT22;5080;48.528;8.078;2023-07-31T00:47:57;15.60;99.90
10083;DHT22;5080;48.528;8.078;2023-07-31T00:50:25;15.60;99.90
10083;DHT22;5080;48.528;8.078;2023-07-31T00:52:52;15.60;99.90
10083;DHT22;5080;48.528;8.078;2023-07-31T00:55:19;15.70;99.90
10083;DHT22;5080;48.528;8.078;2023-07-31T00:57:48;15.70;99.90
10083;DHT22;5080;48.528;8.078;2023-07-31T01:00:15;15.60;99.90
10083;DHT22;5080;48.528;8.078;2023-07-31T01:02:43;15.60;99.90
10083;DHT22;5080;48.528;8.078;2023-07-31T01:05:11;15.60;99.90
10083;DHT22;5080;48.528;8.078;2023-07-31T01:07:44;15.60;99.90
10083;DHT22;5080;48.528;8.078;2023-07-31T01:10:19;15.70;99.90
10083;DHT22;5080;48.528;8.078;2023-07-31T01:12:48;15.60;99.90
10083;DHT22;5080;48.528;8.078;2023-07-31T01:15:14;15.60;99.90
10083;DHT22;5080;48.528;8.078;2023-07-31T01:17:44;15.60;99.90
10083;DHT22;5080;48.528;8.078;2023-07-31T01:20:13;15.60;99.90
10083;DHT22;5080;48.528;8.078;2023-07-31T01:22:59;15.60;99.90
10083;DHT22;5080;48.528;8.078;2023-07-31T01:25:54;15.50;99.90
10083;DHT22;5080;48.528;8.078;2023-07-31T01:28:27;15.50;99.90
10083;DHT22;5080;48.528;8.078;2023-07-31T01:30:58;15.40;99.90
10083;DHT22;5080;48.528;8.078;2023-07-31T01:33:26;15.40;99.90
10083;DHT22;5080;48.528;8.078;2023-07-31T01:35:53;15.40;99.90
10083;DHT22;5080;48.528;8.078;2023-07-31T01:38:21;15.30;99.90
10083;DHT22;5080;48.528;8.078;2023-07-31T01:40:51;15.30;99.90
10083;DHT22;5080;48.528;8.078;2023-07-31T01:43:20;15.40;99.90
10083;DHT22;5080;48.528;8.078;2023-07-31T01:45:46;15.40;99.90
10083;DHT22;5080;48.528;8.078;2023-07-31T01:48:13;15.40;99.90
10083;DHT22;5080;48.528;8.078;2023-07-31T01:50:40;15.40;99.90
10083;DHT22;5080;48.528;8.078;2023-07-31T01:53:07;15.40;99.90
10083;DHT22;5080;48.528;8.078;2023-07-31T01:55:34;15.50;99.90
10083;DHT22;5080;48.528;8.078;2023-07-31T01:58:00;15.50;99.90
10083;DHT22;5080;48.528;8.078;2023-07-31T02:00:29;15.50;99.90
10083;DHT22;5080;48.528;8.078;2023-07-31T02:02:55;15.50;99.90
10083;DHT22;5080;48.528;8.078;2023-07-31T02:05:22;15.50;99.90
10083;DHT22;5080;48.528;8.078;2023-07-31T02:07:49;15.60;99.90
10083;DHT22;5080;48.528;8.078;2023-07-31T02:10:16;15.60;99.90
10083;DHT22;5080;48.528;8.078;2023-07-31T02:12:43;15.60;99.90
10083;DHT22;5080;48.528;8.078;2023-07-31T02:15:10;15.50;99.90
10083;DHT22;5080;48.528;8.078;2023-07-31T02:17:38;15.50;99.90
10083;DHT22;5080;48.528;8.078;2023-07-31T02:20:06;15.50;99.90
10083;DHT22;5080;48.528;8.078;2023-07-31T02:22:33;15.40;99.90
10083;DHT22;5080;48.528;8.078;2023-07-31T02:24:59;15.40;99.90
10083;DHT22;5080;48.528;8.078;2023-07-31T02:27:26;15.40;99.90
10083;DHT22;5080;48.528;8.078;2023-07-31T02:29:53;15.40;99.90
10083;DHT22;5080;48.528;8.078;2023-07-31T02:32:20;15.30;99.90
10083;DHT22;5080;48.528;8.078;2023-07-31T02:34:48;15.30;99.90
10083;DHT22;5080;48.528;8.078;2023-07-31T02:37:15;15.30;99.90
10083;DHT22;5080;48.528;8.078;2023-07-31T02:39:42;15.30;99.90
10083;DHT22;5080;48.528;8.078;2023-07-31T02:42:09;15.30;99.90
10083;DHT22;5080;48.528;8.078;2023-07-31T02:44:36;15.30;99.90
10083;DHT22;5080;48.528;8.078;2023-07-31T02:47:03;15.30;99.90
10083;DHT22;5080;48.528;8.078;2023-07-31T02:49:30;15.40;99.90
10083;DHT22;5080;48.528;8.078;2023-07-31T02:51:58;15.40;99.90
10083;DHT22;5080;48.528;8.078;2023-07-31T02:54:25;15.30;99.90
10083;DHT22;5080;48.528;8.078;2023-07-31T02:56:52;15.20;99.90
10083;DHT22;5080;48.528;8.078;2023-07-31T02:59:20;15.20;99.90
10083;DHT22;5080;48.528;8.078;2023-07-31T03:01:47;15.30;99.90
10083;DHT22;5080;48.528;8.078;2023-07-31T03:04:14;15.30;99.90
10083;DHT22;5080;48.528;8.078;2023-07-31T03:06:41;15.30;99.90
10083;DHT22;5080;48.528;8.078;2023-07-31T03:09:09;15.30;99.90
10083;DHT22;5080;48.528;8.078;2023-07-31T03:11:35;15.30;99.90
10083;DHT22;5080;48.528;8.078;2023-07-31T03:14:02;15.30;99.90
10083;DHT22;5080;48.528;8.078;2023-07-31T03:16:29;15.40;99.90
10083;DHT22;5080;48.528;8.078;2023-07-31T03:18:56;15.30;99.90
10083;DHT22;5080;48.528;8.078;2023-07-31T03:21:23;15.40;99.90
10083;DHT22;5080;48.528;8.078;2023-07-31T03:23:50;15.30;99.90
10083;DHT22;5080;48.528;8.078;2023-07-31T03:26:18;15.20;99.90
10083;DHT22;5080;48.528;8.078;2023-07-31T03:28:45;15.30;99.90
10083;DHT22;5080;48.528;8.078;2023-07-31T03:31:11;15.30;99.90
10083;DHT22;5080;48.528;8.078;2023-07-31T03:33:38;15.30;99.90
10083;DHT22;5080;48.528;8.078;2023-07-31T03:36:05;15.20;99.90
10083;DHT22;5080;48.528;8.078;2023-07-31T03:38:33;15.10;99.90
10083;DHT22;5080;48.528;8.078;2023-07-31T03:41:00;15.10;99.90
10083;DHT22;5080;48.528;8.078;2023-07-31T03:43:29;15.10;99.90
10083;DHT22;5080;48.528;8.078;2023-07-31T03:45:56;15.10;99.90
10083;DHT22;5080;48.528;8.078;2023-07-31T03:48:22;15.10;99.90
10083;DHT22;5080;48.528;8.078;2023-07-31T03:50:49;15.10;99.90
10083;DHT22;5080;48.528;8.078;2023-07-31T03:53:16;15.20;99.90
10083;DHT22;5080;48.528;8.078;2023-07-31T03:55:43;15.10;99.90
10083;DHT22;5080;48.528;8.078;2023-07-31T03:58:10;15.10;99.90
10083;DHT22;5080;48.528;8.078;2023-07-31T04:00:39;15.10;99.90
10083;DHT22;5080;48.528;8.078;2023-07-31T04:03:06;15.10;99.90
10083;DHT22;5080;48.528;8.078;2023-07-31T04:05:33;15.20;99.90
10083;DHT22;5080;48.528;8.078;2023-07-31T04:07:59;15.20;99.90
10083;DHT22;5080;48.528;8.078;2023-07-31T04:10:26;15.20;99.90
10083;DHT22;5080;48.528;8.078;2023-07-31T04:12:53;15.10;99.90
10083;DHT22;5080;48.528;8.078;2023-07-31T04:15:20;15.30;99.90
10083;DHT22;5080;48.528;8.078;2023-07-31T04:17:48;15.10;99.90
10083;DHT22;5080;48.528;8.078;2023-07-31T04:20:15;15.10;99.90
10083;DHT22;5080;48.528;8.078;2023-07-31T04:22:42;15.10;99.90
10083;DHT22;5080;48.528;8.078;2023-07-31T04:25:09;15.20;99.90
10083;DHT22;5080;48.528;8.078;2023-07-31T04:27:35;15.30;99.90
10083;DHT22;5080;48.528;8.078;2023-07-31T04:30:03;15.30;99.90
10083;DHT22;5080;48.528;8.078;2023-07-31T04:32:30;15.40;99.90
10083;DHT22;5080;48.528;8.078;2023-07-31T04:34:58;15.40;99.90
10083;DHT22;5080;48.528;8.078;2023-07-31T04:37:25;15.50;99.90
10083;DHT22;5080;48.528;8.078;2023-07-31T04:39:51;15.50;99.90
10083;DHT22;5080;48.528;8.078;2023-07-31T04:42:18;15.50;99.90
10083;DHT22;5080;48.528;8.078;2023-07-31T04:44:45;15.50;99.90
10083;DHT22;5080;48.528;8.078;2023-07-31T04:47:12;15.50;99.90
10083;DHT22;5080;48.528;8.078;2023-07-31T04:49:39;15.50;99.90
10083;DHT22;5080;48.528;8.078;2023-07-31T04:52:07;15.50;99.90
10083;DHT22;5080;48.528;8.078;2023-07-31T04:54:34;15.60;99.90
10083;DHT22;5080;48.528;8.078;2023-07-31T04:57:01;15.60;99.90
10083;DHT22;5080;48.528;8.078;2023-07-31T04:59:27;15.70;99.90
10083;DHT22;5080;48.528;8.078;2023-07-31T05:01:55;15.70;99.90
10083;DHT22;5080;48.528;8.078;2023-07-31T05:04:21;15.80;99.90
10083;DHT22;5080;48.528;8.078;2023-07-31T05:06:48;15.80;99.90
10083;DHT22;5080;48.528;8.078;2023-07-31T05:09:17;15.80;99.90
10083;DHT22;5080;48.528;8.078;2023-07-31T05:11:44;15.90;99.90
10083;DHT22;5080;48.528;8.078;2023-07-31T05:14:11;15.90;99.90
10083;DHT22;5080;48.528;8.078;2023-07-31T05:16:37;16.00;99.90
10083;DHT22;5080;48.528;8.078;2023-07-31T05:19:04;16.00;99.90
10083;DHT22;5080;48.528;8.078;2023-07-31T05:21:31;16.00;99.90
10083;DHT22;5080;48.528;8.078;2023-07-31T05:23:58;16.00;99.90
10083;DHT22;5080;48.528;8.078;2023-07-31T05:26:26;16.00;99.90
10083;DHT22;5080;48.528;8.078;2023-07-31T05:28:53;16.10;99.90
10083;DHT22;5080;48.528;8.078;2023-07-31T05:31:20;16.10;99.90
10083;DHT22;5080;48.528;8.078;2023-07-31T05:33:48;16.20;99.90
10083;DHT22;5080;48.528;8.078;2023-07-31T05:36:15;16.20;99.90
10083;DHT22;5080;48.528;8.078;2023-07-31T05:38:42;16.20;99.90
10083;DHT22;5080;48.528;8.078;2023-07-31T05:41:11;16.30;99.90
10083;DHT22;5080;48.528;8.078;2023-07-31T05:43:39;16.30;99.90
10083;DHT22;5080;48.528;8.078;2023-07-31T05:46:06;16.40;99.90
10083;DHT22;5080;48.528;8.078;2023-07-31T05:48:34;16.50;99.90
10083;DHT22;5080;48.528;8.078;2023-07-31T05:51:01;16.60;99.90
10083;DHT22;5080;48.528;8.078;2023-07-31T05:53:28;16.60;99.90
10083;DHT22;5080;48.528;8.078;2023-07-31T05:55:55;16.80;99.90
10083;DHT22;5080;48.528;8.078;2023-07-31T05:58:22;16.90;99.90
10083;DHT22;5080;48.528;8.078;2023-07-31T06:00:51;17.00;99.90
10083;DHT22;5080;48.528;8.078;2023-07-31T06:03:18;17.10;99.90
10083;DHT22;5080;48.528;8.078;2023-07-31T06:05:45;17.20;99.90
10083;DHT22;5080;48.528;8.078;2023-07-31T06:08:11;17.20;99.90
10083;DHT22;5080;48.528;8.078;2023-07-31T06:10:38;17.30;99.90
10083;DHT22;5080;48.528;8.078;2023-07-31T06:13:05;17.40;99.90
10083;DHT22;5080;48.528;8.078;2023-07-31T06:15:32;17.50;99.90
10083;DHT22;5080;48.528;8.078;2023-07-31T06:18:00;17.50;99.90
10083;DHT22;5080;48.528;8.078;2023-07-31T06:20:28;17.60;99.90
10083;DHT22;5080;48.528;8.078;2023-07-31T06:22:55;17.60;99.90
10083;DHT22;5080;48.528;8.078;2023-07-31T06:25:22;17.70;99.90
10083;DHT22;5080;48.528;8.078;2023-07-31T06:27:49;17.80;99.90
10083;DHT22;5080;48.528;8.078;2023-07-31T06:30:16;17.90;99.90
10083;DHT22;5080;48.528;8.078;2023-07-31T06:32:42;18.00;99.90
10083;DHT22;5080;48.528;8.078;2023-07-31T06:35:11;18.10;99.90
10083;DHT22;5080;48.528;8.078;2023-07-31T06:37:37;18.20;99.90
10083;DHT22;5080;48.528;8.078;2023-07-31T06:40:07;18.20;99.90
10083;DHT22;5080;48.528;8.078;2023-07-31T06:42:34;18.40;99.90
10083;DHT22;5080;48.528;8.078;2023-07-31T06:45:01;18.40;99.90
10083;DHT22;5080;48.528;8.078;2023-07-31T06:47:28;18.50;99.90
10083;DHT22;5080;48.528;8.078;2023-07-31T06:49:56;18.60;99.90
10083;DHT22;5080;48.528;8.078;2023-07-31T06:52:24;18.70;99.90
10083;DHT22;5080;48.528;8.078;2023-07-31T06:55:01;18.80;99.90
10083;DHT22;5080;48.528;8.078;2023-07-31T06:57:28;18.80;99.90
10083;DHT22;5080;48.528;8.078;2023-07-31T06:59:55;18.90;99.90
10083;DHT22;5080;48.528;8.078;2023-07-31T07:02:22;19.10;99.90
10083;DHT22;5080;48.528;8.078;2023-07-31T07:04:49;19.10;99.90
10083;DHT22;5080;48.528;8.078;2023-07-31T07:07:17;19.20;99.90
10083;DHT22;5080;48.528;8.078;2023-07-31T07:09:45;19.20;99.90
10083;DHT22;5080;48.528;8.078;2023-07-31T07:12:12;19.30;99.90
10083;DHT22;5080;48.528;8.078;2023-07-31T07:14:38;19.30;99.90
10083;DHT22;5080;48.528;8.078;2023-07-31T07:17:06;19.40;99.90
10083;DHT22;5080;48.528;8.078;2023-07-31T07:19:32;19.40;99.90
10083;DHT22;5080;48.528;8.078;2023-07-31T07:21:59;19.60;99.90
10083;DHT22;5080;48.528;8.078;2023-07-31T07:24:27;19.70;99.90
10083;DHT22;5080;48.528;8.078;2023-07-31T07:26:55;19.90;99.90
10083;DHT22;5080;48.528;8.078;2023-07-31T07:29:22;20.10;99.90
10083;DHT22;5080;48.528;8.078;2023-07-31T07:31:49;20.20;99.90
10083;DHT22;5080;48.528;8.078;2023-07-31T07:34:16;20.30;99.90
10083;DHT22;5080;48.528;8.078;2023-07-31T07:36:43;20.50;99.90
10083;DHT22;5080;48.528;8.078;2023-07-31T07:39:10;20.60;99.90
10083;DHT22;5080;48.528;8.078;2023-07-31T07:41:37;20.60;99.90
10083;DHT22;5080;48.528;8.078;2023-07-31T07:44:06;20.90;99.90
10083;DHT22;5080;48.528;8.078;2023-07-31T07:46:32;20.90;99.90
10083;DHT22;5080;48.528;8.078;2023-07-31T07:48:59;21.00;99.90
10083;DHT22;5080;48.528;8.078;2023-07-31T07:51:26;21.20;99.90
10083;DHT22;5080;48.528;8.078;2023-07-31T07:53:55;21.30;99.90
10083;DHT22;5080;48.528;8.078;2023-07-31T07:56:25;21.30;99.90
10083;DHT22;5080;48.528;8.078;2023-07-31T07:58:52;21.50;99.90
10083;DHT22;5080;48.528;8.078;2023-07-31T08:01:20;21.70;99.90
10083;DHT22;5080;48.528;8.078;2023-07-31T08:03:48;21.80;99.90
10083;DHT22;5080;48.528;8.078;2023-07-31T08:06:15;21.80;99.90
10083;DHT22;5080;48.528;8.078;2023-07-31T08:08:41;21.90;99.90
10083;DHT22;5080;48.528;8.078;2023-07-31T08:11:08;21.90;99.90
10083;DHT22;5080;48.528;8.078;2023-07-31T08:13:35;22.00;99.90
10083;DHT22;5080;48.528;8.078;2023-07-31T08:16:03;22.00;99.90
10083;DHT22;5080;48.528;8.078;2023-07-31T08:18:32;22.10;99.90
10083;DHT22;5080;48.528;8.078;2023-07-31T08:20:58;22.10;99.90
10083;DHT22;5080;48.528;8.078;2023-07-31T08:23:25;22.00;99.90
10083;DHT22;5080;48.528;8.078;2023-07-31T08:25:52;21.90;99.90
10083;DHT22;5080;48.528;8.078;2023-07-31T08:28:19;21.90;99.90
10083;DHT22;5080;48.528;8.078;2023-07-31T08:30:46;21.90;99.90
10083;DHT22;5080;48.528;8.078;2023-07-31T08:33:13;21.90;99.90
10083;DHT22;5080;48.528;8.078;2023-07-31T08:35:41;21.90;99.90
10083;DHT22;5080;48.528;8.078;2023-07-31T08:38:08;21.90;99.90
10083;DHT22;5080;48.528;8.078;2023-07-31T08:40:36;21.90;99.90
10083;DHT22;5080;48.528;8.078;2023-07-31T08:43:03;21.90;99.90
10083;DHT22;5080;48.528;8.078;2023-07-31T08:45:31;21.90;99.90
10083;DHT22;5080;48.528;8.078;2023-07-31T08:47:59;22.00;99.90
10083;DHT22;5080;48.528;8.078;2023-07-31T08:50:25;22.00;99.90
10083;DHT22;5080;48.528;8.078;2023-07-31T08:52:54;22.10;99.90
10083;DHT22;5080;48.528;8.078;2023-07-31T08:55:21;22.40;99.90
10083;DHT22;5080;48.528;8.078;2023-07-31T08:57:51;22.50;99.90
10083;DHT22;5080;48.528;8.078;2023-07-31T09:00:20;22.60;99.90
10083;DHT22;5080;48.528;8.078;2023-07-31T09:02:54;22.70;99.90
10083;DHT22;5080;48.528;8.078;2023-07-31T09:05:23;22.60;99.90
10083;DHT22;5080;48.528;8.078;2023-07-31T09:07:50;22.60;99.90
10083;DHT22;5080;48.528;8.078;2023-07-31T09:10:19;22.70;99.90
10083;DHT22;5080;48.528;8.078;2023-07-31T09:12:46;22.70;99.90
10083;DHT22;5080;48.528;8.078;2023-07-31T09:15:14;22.80;99.90
10083;DHT22;5080;48.528;8.078;2023-07-31T09:17:41;22.80;99.90
10083;DHT22;5080;48.528;8.078;2023-07-31T09:20:13;22.90;99.90
10083;DHT22;5080;48.528;8.078;2023-07-31T09:22:40;23.00;99.90
10083;DHT22;5080;48.528;8.078;2023-07-31T09:25:14;23.10;99.90
10083;DHT22;5080;48.528;8.078;2023-07-31T09:27:51;23.30;99.90
10083;DHT22;5080;48.528;8.078;2023-07-31T09:30:18;23.50;99.90
10083;DHT22;5080;48.528;8.078;2023-07-31T09:32:46;24.00;99.90
10083;DHT22;5080;48.528;8.078;2023-07-31T09:35:20;24.40;99.90
10083;DHT22;5080;48.528;8.078;2023-07-31T09:37:49;24.60;99.90
10083;DHT22;5080;48.528;8.078;2023-07-31T09:40:27;24.90;99.90
10083;DHT22;5080;48.528;8.078;2023-07-31T09:42:58;25.30;99.90
10083;DHT22;5080;48.528;8.078;2023-07-31T09:45:25;25.60;99.90
10083;DHT22;5080;48.528;8.078;2023-07-31T09:47:52;25.50;99.90
10083;DHT22;5080;48.528;8.078;2023-07-31T09:50:21;25.20;99.90
10083;DHT22;5080;48.528;8.078;2023-07-31T09:52:48;25.20;99.90
10083;DHT22;5080;48.528;8.078;2023-07-31T09:55:15;25.10;99.90
10083;DHT22;5080;48.528;8.078;2023-07-31T09:57:45;25.00;99.90
10083;DHT22;5080;48.528;8.078;2023-07-31T10:00:15;24.80;99.90
10083;DHT22;5080;48.528;8.078;2023-07-31T10:02:45;24.80;99.90
10083;DHT22;5080;48.528;8.078;2023-07-31T10:05:13;24.90;99.90
10083;DHT22;5080;48.528;8.078;2023-07-31T10:07:43;24.90;99.90
10083;DHT22;5080;48.528;8.078;2023-07-31T10:10:13;24.90;99.90
10083;DHT22;5080;48.528;8.078;2023-07-31T10:12:42;24.90;99.90
10083;DHT22;5080;48.528;8.078;2023-07-31T10:15:10;25.10;99.90
10083;DHT22;5080;48.528;8.078;2023-07-31T10:17:39;25.30;99.90
10083;DHT22;5080;48.528;8.078;2023-07-31T10:20:07;25.30;99.90
10083;DHT22;5080;48.528;8.078;2023-07-31T10:22:36;25.10;99.90
10083;DHT22;5080;48.528;8.078;2023-07-31T10:25:03;25.10;99.90
10083;DHT22;5080;48.528;8.078;2023-07-31T10:27:30;25.20;99.90
10083;DHT22;5080;48.528;8.078;2023-07-31T10:29:58;25.20;99.90
10083;DHT22;5080;48.528;8.078;2023-07-31T10:32:26;25.10;99.90
10083;DHT22;5080;48.528;8.078;2023-07-31T10:34:56;24.90;99.90
10083;DHT22;5080;48.528;8.078;2023-07-31T10:37:25;24.80;99.90
10083;DHT22;5080;48.528;8.078;2023-07-31T10:39:57;24.60;99.90
10083;DHT22;5080;48.528;8.078;2023-07-31T10:42:31;24.20;99.90
10083;DHT22;5080;48.528;8.078;2023-07-31T10:45:01;24.00;99.90
10083;DHT22;5080;48.528;8.078;2023-07-31T10:47:29;24.00;99.90
10083;DHT22;5080;48.528;8.078;2023-07-31T10:50:17;24.00;99.90
10083;DHT22;5080;48.528;8.078;2023-07-31T10:52:49;23.90;99.90
10083;DHT22;5080;48.528;8.078;2023-07-31T10:55:24;23.90;99.90
10083;DHT22;5080;48.528;8.078;2023-07-31T10:57:52;23.80;99.90
10083;DHT22;5080;48.528;8.078;2023-07-31T11:00:25;23.90;99.90
10083;DHT22;5080;48.528;8.078;2023-07-31T11:03:03;23.80;99.90
10083;DHT22;5080;48.528;8.078;2023-07-31T11:05:51;23.70;99.90
10083;DHT22;5080;48.528;8.078;2023-07-31T11:08:21;23.70;99.90
10083;DHT22;5080;48.528;8.078;2023-07-31T11:10:50;23.80;99.90
10083;DHT22;5080;48.528;8.078;2023-07-31T11:13:17;23.80;99.90
10083;DHT22;5080;48.528;8.078;2023-07-31T11:15:45;23.90;99.90
10083;DHT22;5080;48.528;8.078;2023-07-31T11:18:11;24.00;99.90
10083;DHT22;5080;48.528;8.078;2023-07-31T11:20:38;24.10;99.90
10083;DHT22;5080;48.528;8.078;2023-07-31T11:23:09;24.30;99.90
10083;DHT22;5080;48.528;8.078;2023-07-31T11:25:37;24.30;99.90
10083;DHT22;5080;48.528;8.078;2023-07-31T11:28:07;24.40;99.90
10083;DHT22;5080;48.528;8.078;2023-07-31T11:30:34;24.80;99.90
10083;DHT22;5080;48.528;8.078;2023-07-31T11:33:02;25.00;99.90
10083;DHT22;5080;48.528;8.078;2023-07-31T11:35:31;25.30;99.90
10083;DHT22;5080;48.528;8.078;2023-07-31T11:37:58;25.50;99.90
10083;DHT22;5080;48.528;8.078;2023-07-31T11:40:26;25.60;99.90
10083;DHT22;5080;48.528;8.078;2023-07-31T11:42:56;25.90;99.90
10083;DHT22;5080;48.528;8.078;2023-07-31T11:45:25;26.20;99.90
10083;DHT22;5080;48.528;8.078;2023-07-31T11:47:54;26.30;99.90
10083;DHT22;5080;48.528;8.078;2023-07-31T11:50:21;26.60;99.90
10083;DHT22;5080;48.528;8.078;2023-07-31T11:52:52;26.80;99.90
10083;DHT22;5080;48.528;8.078;2023-07-31T11:55:19;26.90;99.90
10083;DHT22;5080;48.528;8.078;2023-07-31T11:57:48;26.70;99.90
10083;DHT22;5080;48.528;8.078;2023-07-31T12:00:15;26.50;99.90
10083;DHT22;5080;48.528;8.078;2023-07-31T12:02:43;26.20;99.90
10083;DHT22;5080;48.528;8.078;2023-07-31T12:05:11;26.10;99.90
10083;DHT22;5080;48.528;8.078;2023-07-31T12:07:46;26.10;99.90
10083;DHT22;5080;48.528;8.078;2023-07-31T12:10:23;26.10;99.90
10083;DHT22;5080;48.528;8.078;2023-07-31T12:12:58;26.20;99.90
10083;DHT22;5080;48.528;8.078;2023-07-31T12:15:32;26.10;99.90
10083;DHT22;5080;48.528;8.078;2023-07-31T12:18:00;26.00;99.90
10083;DHT22;5080;48.528;8.078;2023-07-31T12:20:27;26.00;99.90
10083;DHT22;5080;48.528;8.078;2023-07-31T12:22:56;26.10;99.90
10083;DHT22;5080;48.528;8.078;2023-07-31T12:25:28;26.20;99.90
10083;DHT22;5080;48.528;8.078;2023-07-31T12:27:55;26.30;99.90
10083;DHT22;5080;48.528;8.078;2023-07-31T12:30:29;26.30;99.90
10083;DHT22;5080;48.528;8.078;2023-07-31T12:33:03;26.10;99.90
10083;DHT22;5080;48.528;8.078;2023-07-31T12:35:35;26.10;99.90
10083;DHT22;5080;48.528;8.078;2023-07-31T12:38:02;26.20;99.90
10083;DHT22;5080;48.528;8.078;2023-07-31T12:40:29;26.20;99.90
10083;DHT22;5080;48.528;8.078;2023-07-31T12:42:56;26.20;99.90
10083;DHT22;5080;48.528;8.078;2023-07-31T12:45:23;26.30;99.90
10083;DHT22;5080;48.528;8.078;2023-07-31T12:47:51;26.20;99.90
10083;DHT22;5080;48.528;8.078;2023-07-31T12:50:18;26.10;99.90
10083;DHT22;5080;48.528;8.078;2023-07-31T12:52:45;26.00;99.90
10083;DHT22;5080;48.528;8.078;2023-07-31T12:55:12;26.00;99.90
10083;DHT22;5080;48.528;8.078;2023-07-31T12:57:39;25.90;99.90
10083;DHT22;5080;48.528;8.078;2023-07-31T13:00:08;25.90;99.90
10083;DHT22;5080;48.528;8.078;2023-07-31T13:02:35;25.70;99.90
10083;DHT22;5080;48.528;8.078;2023-07-31T13:05:03;25.60;99.90
10083;DHT22;5080;48.528;8.078;2023-07-31T13:07:30;25.80;99.90
10083;DHT22;5080;48.528;8.078;2023-07-31T13:09:57;25.80;99.90
10083;DHT22;5080;48.528;8.078;2023-07-31T13:12:24;25.80;99.90
10083;DHT22;5080;48.528;8.078;2023-07-31T13:14:51;25.90;99.90
10083;DHT22;5080;48.528;8.078;2023-07-31T13:17:18;25.90;99.90
10083;DHT22;5080;48.528;8.078;2023-07-31T13:19:45;26.00;99.90
10083;DHT22;5080;48.528;8.078;2023-07-31T13:22:14;26.00;99.90
10083;DHT22;5080;48.528;8.078;2023-07-31T13:24:40;26.10;99.90
10083;DHT22;5080;48.528;8.078;2023-07-31T13:27:07;26.20;99.90
10083;DHT22;5080;48.528;8.078;2023-07-31T13:29:34;26.20;99.90
10083;DHT22;5080;48.528;8.078;2023-07-31T13:32:01;26.10;99.90
10083;DHT22;5080;48.528;8.078;2023-07-31T13:34:28;26.00;99.90
10083;DHT22;5080;48.528;8.078;2023-07-31T13:36:55;25.90;99.90
10083;DHT22;5080;48.528;8.078;2023-07-31T13:39:23;25.80;99.90
10083;DHT22;5080;48.528;8.078;2023-07-31T13:41:50;25.80;99.90
10083;DHT22;5080;48.528;8.078;2023-07-31T13:44:16;26.00;99.90
10083;DHT22;5080;48.528;8.078;2023-07-31T13:46:43;26.20;99.90
10083;DHT22;5080;48.528;8.078;2023-07-31T13:49:10;26.40;99.90
10083;DHT22;5080;48.528;8.078;2023-07-31T13:51:37;26.50;99.90
10083;DHT22;5080;48.528;8.078;2023-07-31T13:54:05;26.50;99.90
10083;DHT22;5080;48.528;8.078;2023-07-31T13:56:34;26.60;99.90
10083;DHT22;5080;48.528;8.078;2023-07-31T13:59:01;26.60;99.90
10083;DHT22;5080;48.528;8.078;2023-07-31T14:01:28;26.70;99.90
10083;DHT22;5080;48.528;8.078;2023-07-31T14:03:54;26.80;99.90
10083;DHT22;5080;48.528;8.078;2023-07-31T14:06:21;26.70;99.90
10083;DHT22;5080;48.528;8.078;2023-07-31T14:08:48;26.60;99.90
10083;DHT22;5080;48.528;8.078;2023-07-31T14:11:15;26.40;99.90
10083;DHT22;5080;48.528;8.078;2023-07-31T14:13:43;26.40;99.90
10083;DHT22;5080;48.528;8.078;2023-07-31T14:16:10;26.30;99.90
10083;DHT22;5080;48.528;8.078;2023-07-31T14:18:37;26.10;99.90
10083;DHT22;5080;48.528;8.078;2023-07-31T14:21:03;26.00;99.90
10083;DHT22;5080;48.528;8.078;2023-07-31T14:23:30;26.00;99.90
10083;DHT22;5080;48.528;8.078;2023-07-31T14:25:57;25.80;99.90
10083;DHT22;5080;48.528;8.078;2023-07-31T14:28:24;25.80;99.90
10083;DHT22;5080;48.528;8.078;2023-07-31T14:30:52;25.80;99.90
10083;DHT22;5080;48.528;8.078;2023-07-31T14:33:19;25.70;99.90
10083;DHT22;5080;48.528;8.078;2023-07-31T14:35:46;25.70;99.90
10083;DHT22;5080;48.528;8.078;2023-07-31T14:38:12;25.60;99.90
10083;DHT22;5080;48.528;8.078;2023-07-31T14:40:39;25.50;99.90
10083;DHT22;5080;48.528;8.078;2023-07-31T14:43:06;25.50;99.90
10083;DHT22;5080;48.528;8.078;2023-07-31T14:45:33;25.50;99.90
10083;DHT22;5080;48.528;8.078;2023-07-31T14:48:01;25.60;99.90
10083;DHT22;5080;48.528;8.078;2023-07-31T14:50:28;25.60;99.90
10083;DHT22;5080;48.528;8.078;2023-07-31T14:52:55;25.60;99.90
10083;DHT22;5080;48.528;8.078;2023-07-31T14:55:22;25.60;99.90
10083;DHT22;5080;48.528;8.078;2023-07-31T14:57:49;25.70;99.90
10083;DHT22;5080;48.528;8.078;2023-07-31T15:00:16;25.80;99.90
10083;DHT22;5080;48.528;8.078;2023-07-31T15:02:43;26.00;99.90
10083;DHT22;5080;48.528;8.078;2023-07-31T15:05:11;26.00;99.90
10083;DHT22;5080;48.528;8.078;2023-07-31T15:07:38;26.00;99.90
10083;DHT22;5080;48.528;8.078;2023-07-31T15:10:06;26.10;99.90
10083;DHT22;5080;48.528;8.078;2023-07-31T15:12:33;26.10;99.90
10083;DHT22;5080;48.528;8.078;2023-07-31T15:15:00;26.20;99.90
10083;DHT22;5080;48.528;8.078;2023-07-31T15:17:27;26.40;99.90
10083;DHT22;5080;48.528;8.078;2023-07-31T15:19:55;26.50;99.90
10083;DHT22;5080;48.528;8.078;2023-07-31T15:22:23;26.50;99.90
10083;DHT22;5080;48.528;8.078;2023-07-31T15:24:50;26.60;99.90
10083;DHT22;5080;48.528;8.078;2023-07-31T15:27:17;26.80;99.90
10083;DHT22;5080;48.528;8.078;2023-07-31T15:29:44;26.90;99.90
10083;DHT22;5080;48.528;8.078;2023-07-31T15:32:11;27.00;99.90
10083;DHT22;5080;48.528;8.078;2023-07-31T15:34:38;27.20;99.90
10083;DHT22;5080;48.528;8.078;2023-07-31T15:37:05;27.20;99.90
10083;DHT22;5080;48.528;8.078;2023-07-31T15:39:33;27.10;99.90
10083;DHT22;5080;48.528;8.078;2023-07-31T15:42:00;27.10;99.90
10083;DHT22;5080;48.528;8.078;2023-07-31T15:44:26;27.10;99.90
10083;DHT22;5080;48.528;8.078;2023-07-31T15:46:53;26.90;99.90
10083;DHT22;5080;48.528;8.078;2023-07-31T15:49:20;26.80;99.90